sensor_id;sensor_type;location;lat;lon;timestamp;temperature;humidity
19817;DHT22;68323;49.394;8.434;2023-08-24T00:01:19;22.50;99.90
19817;DHT22;68323;49.394;8.434;2023-08-24T00:03:45;22.50;99.90
19817;DHT22;68323;49.394;8.434;2023-08-24T00:06:12;22.50;99.90
19817;DHT22;68323;49.394;8.434;2023-08-24T00:08:37;22.50;99.90
19817;DHT22;68323;49.394;8.434;2023-08-24T00:11:03;22.50;99.90
19817;DHT22;68323;49.394;8.434;2023-08-24T00:13:29;22.60;99.90
19817;DHT22;68323;49.394;8.434;2023-08-24T00:15:55;22.60;99.90
19817;DHT22;68323;49.394;8.434;2023-08-24T00:18:21;22.60;99.90
19817;DHT22;68323;49.394;8.434;2023-08-24T00:20:49;22.60;99.90
19817;DHT22;68323;49.394;8.434;2023-08-24T00:23:15;22.70;99.90
19817;DHT22;68323;49.394;8.434;2023-08-24T00:25:41;22.70;99.90
19817;DHT22;68323;49.394;8.434;2023-08-24T00:28:07;22.70;99.90
19817;DHT22;68323;49.394;8.434;2023-08-24T00:30:32;22.80;99.90
19817;DHT22;68323;49.394;8.434;2023-08-24T00:32:58;22.80;99.90
19817;DHT22;68323;49.394;8.434;2023-08-24T00:35:23;22.80;99.90
19817;DHT22;68323;49.394;8.434;2023-08-24T00:37:49;22.80;99.90
19817;DHT22;68323;49.394;8.434;2023-08-24T00:40:16;22.80;99.90
19817;DHT22;68323;49.394;8.434;2023-08-24T00:42:43;22.70;99.90
19817;DHT22;68323;49.394;8.434;2023-08-24T00:45:10;22.70;99.90
19817;DHT22;68323;49.394;8.434;2023-08-24T00:47:38;22.60;99.90
19817;DHT22;68323;49.394;8.434;2023-08-24T00:50:06;22.60;99.90
19817;DHT22;68323;49.394;8.434;2023-08-24T00:52:32;22.60;99.90
19817;DHT22;68323;49.394;8.434;2023-08-24T00:55:02;22.50;99.90
19817;DHT22;68323;49.394;8.434;2023-08-24T00:57:28;22.50;99.90
19817;DHT22;68323;49.394;8.434;2023-08-24T00:59:55;22.50;99.90
19817;DHT22;68323;49.394;8.434;2023-08-24T01:02:21;22.50;99.90
19817;DHT22;68323;49.394;8.434;2023-08-24T01:04:47;22.40;99.90
19817;DHT22;68323;49.394;8.434;2023-08-24T01:07:13;22.40;99.90
19817;DHT22;68323;49.394;8.434;2023-08-24T01:09:39;22.40;99.90
19817;DHT22;68323;49.394;8.434;2023-08-24T01:17:23;22.50;99.90
19817;DHT22;68323;49.394;8.434;2023-08-24T01:19:50;22.50;99.90
19817;DHT22;68323;49.394;8.434;2023-08-24T01:22:34;22.50;99.90
19817;DHT22;68323;49.394;8.434;2023-08-24T01:25:17;22.40;99.90
19817;DHT22;68323;49.394;8.434;2023-08-24T01:27:47;22.40;99.90
19817;DHT22;68323;49.394;8.434;2023-08-24T01:30:13;22.40;99.90
19817;DHT22;68323;49.394;8.434;2023-08-24T01:32:40;22.40;99.90
19817;DHT22;68323;49.394;8.434;2023-08-24T01:35:07;22.30;99.90
19817;DHT22;68323;49.394;8.434;2023-08-24T01:37:34;22.40;99.90
19817;DHT22;68323;49.394;8.434;2023-08-24T01:40:10;22.30;99.90
19817;DHT22;68323;49.394;8.434;2023-08-24T01:42:52;22.30;99.90
19817;DHT22;68323;49.394;8.434;2023-08-24T01:45:22;22.20;99.90
19817;DHT22;68323;49.394;8.434;2023-08-24T01:47:50;22.20;99.90
19817;DHT22;68323;49.394;8.434;2023-08-24T01:50:17;22.10;99.90
19817;DHT22;68323;49.394;8.434;2023-08-24T01:52:43;22.00;99.90
19817;DHT22;68323;49.394;8.434;2023-08-24T01:55:08;22.00;99.90
19817;DHT22;68323;49.394;8.434;2023-08-24T01:57:34;22.00;99.90
19817;DHT22;68323;49.394;8.434;2023-08-24T01:59:59;22.00;99.90
19817;DHT22;68323;49.394;8.434;2023-08-24T02:02:25;22.00;99.90
19817;DHT22;68323;49.394;8.434;2023-08-24T02:04:51;21.90;99.90
19817;DHT22;68323;49.394;8.434;2023-08-24T02:07:16;21.90;99.90
19817;DHT22;68323;49.394;8.434;2023-08-24T02:09:42;21.90;99.90
19817;DHT22;68323;49.394;8.434;2023-08-24T02:12:07;21.90;99.90
19817;DHT22;68323;49.394;8.434;2023-08-24T02:14:33;21.90;99.90
19817;DHT22;68323;49.394;8.434;2023-08-24T02:16:59;21.90;99.90
19817;DHT22;68323;49.394;8.434;2023-08-24T02:19:24;21.90;99.90
19817;DHT22;68323;49.394;8.434;2023-08-24T02:21:49;22.00;99.90
19817;DHT22;68323;49.394;8.434;2023-08-24T02:24:15;22.00;99.90
19817;DHT22;68323;49.394;8.434;2023-08-24T02:26:41;21.90;99.90
19817;DHT22;68323;49.394;8.434;2023-08-24T02:29:06;21.90;99.90
19817;DHT22;68323;49.394;8.434;2023-08-24T02:31:32;21.90;99.90
19817;DHT22;68323;49.394;8.434;2023-08-24T02:33:57;21.90;99.90
19817;DHT22;68323;49.394;8.434;2023-08-24T02:36:23;21.90;99.90
19817;DHT22;68323;49.394;8.434;2023-08-24T02:38:48;21.80;99.90
19817;DHT22;68323;49.394;8.434;2023-08-24T02:41:14;21.80;99.90
19817;DHT22;68323;49.394;8.434;2023-08-24T02:43:40;21.80;99.90
19817;DHT22;68323;49.394;8.434;2023-08-24T02:46:07;21.80;99.90
19817;DHT22;68323;49.394;8.434;2023-08-24T02:48:33;21.80;99.90
19817;DHT22;68323;49.394;8.434;2023-08-24T02:51:00;21.70;99.90
19817;DHT22;68323;49.394;8.434;2023-08-24T02:53:27;21.70;99.90
19817;DHT22;68323;49.394;8.434;2023-08-24T02:55:53;21.70;99.90
19817;DHT22;68323;49.394;8.434;2023-08-24T02:58:19;21.70;99.90
19817;DHT22;68323;49.394;8.434;2023-08-24T03:00:45;21.60;99.90
19817;DHT22;68323;49.394;8.434;2023-08-24T03:03:10;21.70;99.90
19817;DHT22;68323;49.394;8.434;2023-08-24T03:05:36;21.70;99.90
19817;DHT22;68323;49.394;8.434;2023-08-24T03:08:01;21.70;99.90
19817;DHT22;68323;49.394;8.434;2023-08-24T03:10:27;21.70;99.90
19817;DHT22;68323;49.394;8.434;2023-08-24T03:12:52;21.70;99.90
19817;DHT22;68323;49.394;8.434;2023-08-24T03:15:18;21.70;99.90
19817;DHT22;68323;49.394;8.434;2023-08-24T03:17:43;21.70;99.90
19817;DHT22;68323;49.394;8.434;2023-08-24T03:20:09;21.60;99.90
19817;DHT22;68323;49.394;8.434;2023-08-24T03:22:36;21.60;99.90
19817;DHT22;68323;49.394;8.434;2023-08-24T03:25:02;21.50;99.90
19817;DHT22;68323;49.394;8.434;2023-08-24T03:27:28;21.60;99.90
19817;DHT22;68323;49.394;8.434;2023-08-24T03:29:54;21.50;99.90
19817;DHT22;68323;49.394;8.434;2023-08-24T03:32:19;21.50;99.90
19817;DHT22;68323;49.394;8.434;2023-08-24T03:34:45;21.60;99.90
19817;DHT22;68323;49.394;8.434;2023-08-24T03:37:10;21.60;99.90
19817;DHT22;68323;49.394;8.434;2023-08-24T03:39:40;21.60;99.90
19817;DHT22;68323;49.394;8.434;2023-08-24T03:42:06;21.70;99.90
19817;DHT22;68323;49.394;8.434;2023-08-24T03:44:32;21.70;99.90
19817;DHT22;68323;49.394;8.434;2023-08-24T03:46:58;21.60;99.90
19817;DHT22;68323;49.394;8.434;2023-08-24T03:49:23;21.70;99.90
19817;DHT22;68323;49.394;8.434;2023-08-24T03:51:49;21.80;99.90
19817;DHT22;68323;49.394;8.434;2023-08-24T03:54:14;21.80;99.90
19817;DHT22;68323;49.394;8.434;2023-08-24T03:56:40;21.90;99.90
19817;DHT22;68323;49.394;8.434;2023-08-24T03:59:05;21.90;99.90
19817;DHT22;68323;49.394;8.434;2023-08-24T04:01:31;21.90;99.90
19817;DHT22;68323;49.394;8.434;2023-08-24T04:03:56;22.00;99.90
19817;DHT22;68323;49.394;8.434;2023-08-24T04:06:22;22.00;99.90
19817;DHT22;68323;49.394;8.434;2023-08-24T04:08:49;22.10;99.90
19817;DHT22;68323;49.394;8.434;2023-08-24T04:11:14;22.00;99.90
19817;DHT22;68323;49.394;8.434;2023-08-24T04:13:40;22.00;99.90
19817;DHT22;68323;49.394;8.434;2023-08-24T04:16:05;22.00;99.90
19817;DHT22;68323;49.394;8.434;2023-08-24T04:18:31;21.90;99.90
19817;DHT22;68323;49.394;8.434;2023-08-24T04:20:57;21.80;99.90
19817;DHT22;68323;49.394;8.434;2023-08-24T04:23:25;21.80;99.90
19817;DHT22;68323;49.394;8.434;2023-08-24T04:25:54;21.80;99.90
19817;DHT22;68323;49.394;8.434;2023-08-24T04:28:20;21.70;99.90
19817;DHT22;68323;49.394;8.434;2023-08-24T04:30:50;21.70;99.90
19817;DHT22;68323;49.394;8.434;2023-08-24T04:33:16;21.60;99.90
19817;DHT22;68323;49.394;8.434;2023-08-24T04:35:42;21.60;99.90
19817;DHT22;68323;49.394;8.434;2023-08-24T04:38:07;21.60;99.90
19817;DHT22;68323;49.394;8.434;2023-08-24T04:40:55;21.60;99.90
19817;DHT22;68323;49.394;8.434;2023-08-24T04:43:22;21.60;99.90
19817;DHT22;68323;49.394;8.434;2023-08-24T04:45:53;21.60;99.90
19817;DHT22;68323;49.394;8.434;2023-08-24T04:48:19;21.60;99.90
19817;DHT22;68323;49.394;8.434;2023-08-24T04:50:46;21.60;99.90
19817;DHT22;68323;49.394;8.434;2023-08-24T04:53:16;21.60;99.90
19817;DHT22;68323;49.394;8.434;2023-08-24T04:55:42;21.60;99.90
19817;DHT22;68323;49.394;8.434;2023-08-24T04:58:09;21.70;99.90
19817;DHT22;68323;49.394;8.434;2023-08-24T05:00:35;21.70;99.90
19817;DHT22;68323;49.394;8.434;2023-08-24T05:03:05;21.70;99.90
19817;DHT22;68323;49.394;8.434;2023-08-24T05:05:34;21.70;99.90
19817;DHT22;68323;49.394;8.434;2023-08-24T05:08:01;21.80;99.90
19817;DHT22;68323;49.394;8.434;2023-08-24T05:10:30;21.80;99.90
19817;DHT22;68323;49.394;8.434;2023-08-24T05:12:56;21.80;99.90
19817;DHT22;68323;49.394;8.434;2023-08-24T05:15:22;21.80;99.90
19817;DHT22;68323;49.394;8.434;2023-08-24T05:17:48;21.80;99.90
19817;DHT22;68323;49.394;8.434;2023-08-24T05:20:13;21.90;99.90
19817;DHT22;68323;49.394;8.434;2023-08-24T05:22:39;22.00;99.90
19817;DHT22;68323;49.394;8.434;2023-08-24T05:25:05;22.00;99.90
19817;DHT22;68323;49.394;8.434;2023-08-24T05:27:31;22.10;99.90
19817;DHT22;68323;49.394;8.434;2023-08-24T05:29:57;22.10;99.90
19817;DHT22;68323;49.394;8.434;2023-08-24T05:32:23;22.10;99.90
19817;DHT22;68323;49.394;8.434;2023-08-24T05:34:49;22.10;99.90
19817;DHT22;68323;49.394;8.434;2023-08-24T05:37:14;22.10;99.90
19817;DHT22;68323;49.394;8.434;2023-08-24T05:39:40;22.00;99.90
19817;DHT22;68323;49.394;8.434;2023-08-24T05:42:06;21.90;99.90
19817;DHT22;68323;49.394;8.434;2023-08-24T05:44:31;21.80;99.90
19817;DHT22;68323;49.394;8.434;2023-08-24T05:46:57;21.80;99.90
19817;DHT22;68323;49.394;8.434;2023-08-24T05:49:22;21.70;99.90
19817;DHT22;68323;49.394;8.434;2023-08-24T05:51:51;21.70;99.90
19817;DHT22;68323;49.394;8.434;2023-08-24T05:54:17;21.80;99.90
19817;DHT22;68323;49.394;8.434;2023-08-24T05:56:46;21.80;99.90
19817;DHT22;68323;49.394;8.434;2023-08-24T05:59:13;21.80;99.90
19817;DHT22;68323;49.394;8.434;2023-08-24T06:01:39;21.80;99.90
19817;DHT22;68323;49.394;8.434;2023-08-24T06:04:05;21.80;99.90
19817;DHT22;68323;49.394;8.434;2023-08-24T06:06:31;21.90;99.90
19817;DHT22;68323;49.394;8.434;2023-08-24T06:08:56;21.90;99.90
19817;DHT22;68323;49.394;8.434;2023-08-24T06:11:22;22.00;99.90
19817;DHT22;68323;49.394;8.434;2023-08-24T06:13:48;22.20;99.90
19817;DHT22;68323;49.394;8.434;2023-08-24T06:16:14;22.30;99.90
19817;DHT22;68323;49.394;8.434;2023-08-24T06:18:39;22.40;99.90
19817;DHT22;68323;49.394;8.434;2023-08-24T06:21:05;22.60;99.90
19817;DHT22;68323;49.394;8.434;2023-08-24T06:23:30;22.60;99.90
19817;DHT22;68323;49.394;8.434;2023-08-24T06:25:56;22.70;99.90
19817;DHT22;68323;49.394;8.434;2023-08-24T06:28:21;22.80;99.90
19817;DHT22;68323;49.394;8.434;2023-08-24T06:30:47;22.80;99.90
19817;DHT22;68323;49.394;8.434;2023-08-24T06:33:13;22.90;99.90
19817;DHT22;68323;49.394;8.434;2023-08-24T06:35:39;23.00;99.90
19817;DHT22;68323;49.394;8.434;2023-08-24T06:38:05;23.00;99.90
19817;DHT22;68323;49.394;8.434;2023-08-24T06:40:31;23.20;99.90
19817;DHT22;68323;49.394;8.434;2023-08-24T06:42:57;23.20;99.90
19817;DHT22;68323;49.394;8.434;2023-08-24T06:45:23;23.20;99.90
19817;DHT22;68323;49.394;8.434;2023-08-24T06:47:49;23.20;99.90
19817;DHT22;68323;49.394;8.434;2023-08-24T06:50:15;23.30;99.90
19817;DHT22;68323;49.394;8.434;2023-08-24T06:52:41;23.30;99.90
19817;DHT22;68323;49.394;8.434;2023-08-24T06:55:08;23.20;99.90
19817;DHT22;68323;49.394;8.434;2023-08-24T06:57:34;23.20;99.90
19817;DHT22;68323;49.394;8.434;2023-08-24T06:59:59;23.30;99.90
19817;DHT22;68323;49.394;8.434;2023-08-24T07:02:25;23.30;99.90
19817;DHT22;68323;49.394;8.434;2023-08-24T07:04:51;23.40;99.90
19817;DHT22;68323;49.394;8.434;2023-08-24T07:07:16;23.50;99.90
19817;DHT22;68323;49.394;8.434;2023-08-24T07:09:42;23.70;99.90
19817;DHT22;68323;49.394;8.434;2023-08-24T07:12:08;24.20;99.90
19817;DHT22;68323;49.394;8.434;2023-08-24T07:14:36;24.70;99.90
19817;DHT22;68323;49.394;8.434;2023-08-24T07:17:01;25.00;99.90
19817;DHT22;68323;49.394;8.434;2023-08-24T07:19:27;25.40;99.90
19817;DHT22;68323;49.394;8.434;2023-08-24T07:21:52;25.90;99.60
19817;DHT22;68323;49.394;8.434;2023-08-24T07:24:18;26.40;98.40
19817;DHT22;68323;49.394;8.434;2023-08-24T07:26:52;26.70;97.20
19817;DHT22;68323;49.394;8.434;2023-08-24T07:29:17;27.00;96.10
19817;DHT22;68323;49.394;8.434;2023-08-24T07:31:43;27.40;94.70
19817;DHT22;68323;49.394;8.434;2023-08-24T07:34:08;27.70;93.50
19817;DHT22;68323;49.394;8.434;2023-08-24T07:36:34;28.30;92.40
19817;DHT22;68323;49.394;8.434;2023-08-24T07:38:59;28.80;88.90
19817;DHT22;68323;49.394;8.434;2023-08-24T07:41:25;28.70;88.60
19817;DHT22;68323;49.394;8.434;2023-08-24T07:43:50;28.50;88.70
19817;DHT22;68323;49.394;8.434;2023-08-24T07:46:16;28.40;89.20
19817;DHT22;68323;49.394;8.434;2023-08-24T07:48:41;28.30;88.50
19817;DHT22;68323;49.394;8.434;2023-08-24T07:51:07;28.10;88.20
19817;DHT22;68323;49.394;8.434;2023-08-24T07:53:33;28.00;87.70
19817;DHT22;68323;49.394;8.434;2023-08-24T07:56:00;28.00;87.90
19817;DHT22;68323;49.394;8.434;2023-08-24T07:58:27;28.00;87.80
19817;DHT22;68323;49.394;8.434;2023-08-24T08:00:53;28.00;88.40
19817;DHT22;68323;49.394;8.434;2023-08-24T08:03:19;28.00;88.90
19817;DHT22;68323;49.394;8.434;2023-08-24T08:05:45;28.40;88.80
19817;DHT22;68323;49.394;8.434;2023-08-24T08:08:13;28.70;86.60
19817;DHT22;68323;49.394;8.434;2023-08-24T08:10:39;29.00;85.80
19817;DHT22;68323;49.394;8.434;2023-08-24T08:13:06;29.20;85.50
19817;DHT22;68323;49.394;8.434;2023-08-24T08:15:31;29.80;82.80
19817;DHT22;68323;49.394;8.434;2023-08-24T08:17:57;30.50;79.80
19817;DHT22;68323;49.394;8.434;2023-08-24T08:20:22;31.40;75.90
19817;DHT22;68323;49.394;8.434;2023-08-24T08:22:48;32.10;71.50
19817;DHT22;68323;49.394;8.434;2023-08-24T08:25:14;33.00;69.50
19817;DHT22;68323;49.394;8.434;2023-08-24T08:27:39;33.80;66.00
19817;DHT22;68323;49.394;8.434;2023-08-24T08:30:05;34.80;64.10
19817;DHT22;68323;49.394;8.434;2023-08-24T08:32:31;36.00;59.20
19817;DHT22;68323;49.394;8.434;2023-08-24T08:34:57;37.20;56.50
19817;DHT22;68323;49.394;8.434;2023-08-24T08:37:23;38.20;53.40
19817;DHT22;68323;49.394;8.434;2023-08-24T08:39:49;39.30;50.80
19817;DHT22;68323;49.394;8.434;2023-08-24T08:42:14;40.20;48.00
19817;DHT22;68323;49.394;8.434;2023-08-24T08:44:42;40.50;45.90
19817;DHT22;68323;49.394;8.434;2023-08-24T08:47:11;40.50;44.90
19817;DHT22;68323;49.394;8.434;2023-08-24T08:49:38;40.20;44.50
19817;DHT22;68323;49.394;8.434;2023-08-24T08:52:05;39.70;45.00
19817;DHT22;68323;49.394;8.434;2023-08-24T08:54:32;39.00;45.50
19817;DHT22;68323;49.394;8.434;2023-08-24T08:57:01;38.80;46.40
19817;DHT22;68323;49.394;8.434;2023-08-24T08:59:30;38.80;46.10
19817;DHT22;68323;49.394;8.434;2023-08-24T09:01:57;39.00;45.90
19817;DHT22;68323;49.394;8.434;2023-08-24T09:04:24;39.40;45.00
19817;DHT22;68323;49.394;8.434;2023-08-24T09:06:50;39.60;44.00
19817;DHT22;68323;49.394;8.434;2023-08-24T09:09:16;39.90;43.60
19817;DHT22;68323;49.394;8.434;2023-08-24T09:11:42;40.30;43.10
19817;DHT22;68323;49.394;8.434;2023-08-24T09:14:12;40.80;42.50
19817;DHT22;68323;49.394;8.434;2023-08-24T09:16:38;40.80;41.90
19817;DHT22;68323;49.394;8.434;2023-08-24T09:19:05;40.40;42.10
19817;DHT22;68323;49.394;8.434;2023-08-24T09:21:36;40.10;42.60
19817;DHT22;68323;49.394;8.434;2023-08-24T09:24:02;39.80;42.30
19817;DHT22;68323;49.394;8.434;2023-08-24T09:26:33;39.80;42.50
19817;DHT22;68323;49.394;8.434;2023-08-24T09:28:59;39.90;42.60
19817;DHT22;68323;49.394;8.434;2023-08-24T09:31:36;40.10;42.90
19817;DHT22;68323;49.394;8.434;2023-08-24T09:34:02;40.40;41.70
19817;DHT22;68323;49.394;8.434;2023-08-24T09:36:31;40.40;41.70
19817;DHT22;68323;49.394;8.434;2023-08-24T09:38:58;40.20;41.80
19817;DHT22;68323;49.394;8.434;2023-08-24T09:41:25;39.90;42.00
19817;DHT22;68323;49.394;8.434;2023-08-24T09:44:05;39.50;42.60
19817;DHT22;68323;49.394;8.434;2023-08-24T09:46:31;39.20;43.10
19817;DHT22;68323;49.394;8.434;2023-08-24T09:48:56;39.10;43.70
19817;DHT22;68323;49.394;8.434;2023-08-24T09:51:26;39.00;43.00
19817;DHT22;68323;49.394;8.434;2023-08-24T09:53:53;38.90;43.00
19817;DHT22;68323;49.394;8.434;2023-08-24T09:56:25;38.60;43.20
19817;DHT22;68323;49.394;8.434;2023-08-24T09:58:51;38.30;43.80
19817;DHT22;68323;49.394;8.434;2023-08-24T10:01:19;38.10;44.40
19817;DHT22;68323;49.394;8.434;2023-08-24T10:03:46;38.30;44.60
19817;DHT22;68323;49.394;8.434;2023-08-24T10:06:15;38.50;43.90
19817;DHT22;68323;49.394;8.434;2023-08-24T10:08:45;38.50;43.90
19817;DHT22;68323;49.394;8.434;2023-08-24T10:11:15;38.40;44.40
19817;DHT22;68323;49.394;8.434;2023-08-24T10:16:14;38.40;44.20
19817;DHT22;68323;49.394;8.434;2023-08-24T10:18:41;38.40;43.40
19817;DHT22;68323;49.394;8.434;2023-08-24T10:21:07;38.50;43.50
19817;DHT22;68323;49.394;8.434;2023-08-24T10:23:34;38.60;43.20
19817;DHT22;68323;49.394;8.434;2023-08-24T10:26:02;38.60;43.30
19817;DHT22;68323;49.394;8.434;2023-08-24T10:28:29;38.60;43.50
19817;DHT22;68323;49.394;8.434;2023-08-24T10:30:59;38.50;43.60
19817;DHT22;68323;49.394;8.434;2023-08-24T10:33:26;38.40;43.60
19817;DHT22;68323;49.394;8.434;2023-08-24T10:35:52;38.00;44.00
19817;DHT22;68323;49.394;8.434;2023-08-24T10:38:40;37.80;44.70
19817;DHT22;68323;49.394;8.434;2023-08-24T10:41:09;37.70;44.70
19817;DHT22;68323;49.394;8.434;2023-08-24T10:43:38;37.50;44.50
19817;DHT22;68323;49.394;8.434;2023-08-24T10:46:11;37.40;44.90
19817;DHT22;68323;49.394;8.434;2023-08-24T10:53:59;37.20;45.40
19817;DHT22;68323;49.394;8.434;2023-08-24T10:56:36;36.70;45.60
19817;DHT22;68323;49.394;8.434;2023-08-24T10:59:11;36.20;46.30
19817;DHT22;68323;49.394;8.434;2023-08-24T11:01:54;35.60;47.70
19817;DHT22;68323;49.394;8.434;2023-08-24T11:04:20;35.20;46.80
19817;DHT22;68323;49.394;8.434;2023-08-24T11:06:57;34.90;47.50
19817;DHT22;68323;49.394;8.434;2023-08-24T11:09:25;34.50;48.40
19817;DHT22;68323;49.394;8.434;2023-08-24T11:14:23;34.10;49.70
19817;DHT22;68323;49.394;8.434;2023-08-24T11:16:53;34.00;49.50
19817;DHT22;68323;49.394;8.434;2023-08-24T11:19:19;34.00;49.70
19817;DHT22;68323;49.394;8.434;2023-08-24T11:21:46;34.20;50.00
19817;DHT22;68323;49.394;8.434;2023-08-24T11:24:16;34.30;49.40
19817;DHT22;68323;49.394;8.434;2023-08-24T11:26:46;34.30;49.70
19817;DHT22;68323;49.394;8.434;2023-08-24T11:29:12;34.40;49.30
19817;DHT22;68323;49.394;8.434;2023-08-24T11:31:38;34.50;49.50
19817;DHT22;68323;49.394;8.434;2023-08-24T11:34:05;34.60;49.50
19817;DHT22;68323;49.394;8.434;2023-08-24T11:36:31;34.70;49.30
19817;DHT22;68323;49.394;8.434;2023-08-24T11:39:06;34.80;49.30
19817;DHT22;68323;49.394;8.434;2023-08-24T11:41:31;34.90;49.50
19817;DHT22;68323;49.394;8.434;2023-08-24T11:44:00;35.00;49.70
19817;DHT22;68323;49.394;8.434;2023-08-24T11:46:29;35.00;49.90
19817;DHT22;68323;49.394;8.434;2023-08-24T11:48:57;35.00;49.80
19817;DHT22;68323;49.394;8.434;2023-08-24T11:51:23;35.10;49.80
19817;DHT22;68323;49.394;8.434;2023-08-24T11:53:49;35.20;49.60
19817;DHT22;68323;49.394;8.434;2023-08-24T11:56:15;35.30;49.80
19817;DHT22;68323;49.394;8.434;2023-08-24T11:58:43;35.40;49.90
19817;DHT22;68323;49.394;8.434;2023-08-24T12:01:09;35.50;49.90
19817;DHT22;68323;49.394;8.434;2023-08-24T12:03:39;35.70;49.90
19817;DHT22;68323;49.394;8.434;2023-08-24T12:06:13;35.90;50.30
19817;DHT22;68323;49.394;8.434;2023-08-24T12:08:44;36.00;50.00
19817;DHT22;68323;49.394;8.434;2023-08-24T12:13:43;36.20;49.30
19817;DHT22;68323;49.394;8.434;2023-08-24T12:16:09;36.20;49.60
19817;DHT22;68323;49.394;8.434;2023-08-24T12:18:45;36.20;49.60
19817;DHT22;68323;49.394;8.434;2023-08-24T12:21:11;36.10;49.80
19817;DHT22;68323;49.394;8.434;2023-08-24T12:23:38;36.10;49.20
19817;DHT22;68323;49.394;8.434;2023-08-24T12:26:04;36.00;49.60
19817;DHT22;68323;49.394;8.434;2023-08-24T12:28:33;36.00;49.80
19817;DHT22;68323;49.394;8.434;2023-08-24T12:30:58;36.00;50.00
19817;DHT22;68323;49.394;8.434;2023-08-24T12:33:29;36.10;49.90
19817;DHT22;68323;49.394;8.434;2023-08-24T12:35:55;36.20;50.00
19817;DHT22;68323;49.394;8.434;2023-08-24T12:38:22;36.30;49.90
19817;DHT22;68323;49.394;8.434;2023-08-24T12:40:48;36.30;49.80
19817;DHT22;68323;49.394;8.434;2023-08-24T12:43:14;36.20;49.90
19817;DHT22;68323;49.394;8.434;2023-08-24T12:45:40;36.20;50.40
19817;DHT22;68323;49.394;8.434;2023-08-24T12:48:06;36.10;50.10
19817;DHT22;68323;49.394;8.434;2023-08-24T12:50:36;36.00;50.40
19817;DHT22;68323;49.394;8.434;2023-08-24T12:53:01;36.00;50.50
19817;DHT22;68323;49.394;8.434;2023-08-24T12:55:29;36.00;50.40
19817;DHT22;68323;49.394;8.434;2023-08-24T12:57:54;35.90;50.70
19817;DHT22;68323;49.394;8.434;2023-08-24T13:00:20;35.80;51.00
19817;DHT22;68323;49.394;8.434;2023-08-24T13:02:50;35.80;50.90
19817;DHT22;68323;49.394;8.434;2023-08-24T13:05:15;35.80;50.90
19817;DHT22;68323;49.394;8.434;2023-08-24T13:07:41;35.80;51.30
19817;DHT22;68323;49.394;8.434;2023-08-24T13:10:07;35.90;50.80
19817;DHT22;68323;49.394;8.434;2023-08-24T13:12:34;36.00;50.90
19817;DHT22;68323;49.394;8.434;2023-08-24T13:14:59;36.10;50.40
19817;DHT22;68323;49.394;8.434;2023-08-24T13:17:25;36.20;50.20
19817;DHT22;68323;49.394;8.434;2023-08-24T13:19:50;36.20;50.40
19817;DHT22;68323;49.394;8.434;2023-08-24T13:22:16;36.20;50.50
19817;DHT22;68323;49.394;8.434;2023-08-24T13:24:42;36.30;50.80
19817;DHT22;68323;49.394;8.434;2023-08-24T13:27:09;36.40;51.00
19817;DHT22;68323;49.394;8.434;2023-08-24T13:29:39;36.30;50.50
19817;DHT22;68323;49.394;8.434;2023-08-24T13:32:05;36.20;50.40
19817;DHT22;68323;49.394;8.434;2023-08-24T13:34:31;36.10;50.70
19817;DHT22;68323;49.394;8.434;2023-08-24T13:36:57;36.20;50.70
19817;DHT22;68323;49.394;8.434;2023-08-24T13:39:26;36.30;50.70
19817;DHT22;68323;49.394;8.434;2023-08-24T13:41:56;36.40;50.30
19817;DHT22;68323;49.394;8.434;2023-08-24T13:44:22;36.30;50.20
19817;DHT22;68323;49.394;8.434;2023-08-24T13:46:47;36.10;50.90
19817;DHT22;68323;49.394;8.434;2023-08-24T13:49:12;36.00;51.00
19817;DHT22;68323;49.394;8.434;2023-08-24T13:51:38;35.90;51.00
19817;DHT22;68323;49.394;8.434;2023-08-24T13:54:17;35.80;51.50
19817;DHT22;68323;49.394;8.434;2023-08-24T13:56:44;35.70;51.40
19817;DHT22;68323;49.394;8.434;2023-08-24T13:59:11;35.60;51.30
19817;DHT22;68323;49.394;8.434;2023-08-24T14:01:36;35.50;51.50
19817;DHT22;68323;49.394;8.434;2023-08-24T14:04:03;35.40;51.90
19817;DHT22;68323;49.394;8.434;2023-08-24T14:06:29;35.30;52.40
19817;DHT22;68323;49.394;8.434;2023-08-24T14:08:56;35.20;52.40
19817;DHT22;68323;49.394;8.434;2023-08-24T14:11:21;35.00;52.90
19817;DHT22;68323;49.394;8.434;2023-08-24T14:13:47;34.70;53.20
19817;DHT22;68323;49.394;8.434;2023-08-24T14:16:12;34.50;53.50
19817;DHT22;68323;49.394;8.434;2023-08-24T14:18:38;34.20;54.60
19817;DHT22;68323;49.394;8.434;2023-08-24T14:21:03;34.00;55.10
19817;DHT22;68323;49.394;8.434;2023-08-24T14:23:29;33.80;56.90
19817;DHT22;68323;49.394;8.434;2023-08-24T14:25:55;33.70;57.40
19817;DHT22;68323;49.394;8.434;2023-08-24T14:28:21;33.40;57.80
19817;DHT22;68323;49.394;8.434;2023-08-24T14:30:49;33.00;58.10
19817;DHT22;68323;49.394;8.434;2023-08-24T14:33:14;32.50;61.90
19817;DHT22;68323;49.394;8.434;2023-08-24T14:35:40;32.10;62.90
19817;DHT22;68323;49.394;8.434;2023-08-24T14:38:05;31.70;65.50
19817;DHT22;68323;49.394;8.434;2023-08-24T14:40:31;31.30;66.80
19817;DHT22;68323;49.394;8.434;2023-08-24T14:42:56;31.00;69.10
19817;DHT22;68323;49.394;8.434;2023-08-24T14:45:22;30.70;70.40
19817;DHT22;68323;49.394;8.434;2023-08-24T14:47:47;30.60;71.10
19817;DHT22;68323;49.394;8.434;2023-08-24T14:50:13;30.30;73.20
19817;DHT22;68323;49.394;8.434;2023-08-24T14:52:39;29.80;74.00
19817;DHT22;68323;49.394;8.434;2023-08-24T14:55:07;29.30;76.50
19817;DHT22;68323;49.394;8.434;2023-08-24T14:57:34;28.70;78.00
19817;DHT22;68323;49.394;8.434;2023-08-24T15:00:00;28.20;81.30
19817;DHT22;68323;49.394;8.434;2023-08-24T15:02:25;27.80;83.40
19817;DHT22;68323;49.394;8.434;2023-08-24T15:04:51;27.50;85.50
19817;DHT22;68323;49.394;8.434;2023-08-24T15:07:16;27.30;85.80
19817;DHT22;68323;49.394;8.434;2023-08-24T15:09:42;27.30;87.30
19817;DHT22;68323;49.394;8.434;2023-08-24T15:12:07;27.20;86.70
19817;DHT22;68323;49.394;8.434;2023-08-24T15:14:33;27.30;86.50
19817;DHT22;68323;49.394;8.434;2023-08-24T15:16:58;27.30;87.70
19817;DHT22;68323;49.394;8.434;2023-08-24T15:19:24;27.40;86.80
19817;DHT22;68323;49.394;8.434;2023-08-24T15:21:49;27.50;87.70
19817;DHT22;68323;49.394;8.434;2023-08-24T15:24:14;27.70;88.10
19817;DHT22;68323;49.394;8.434;2023-08-24T15:26:40;27.80;87.20
19817;DHT22;68323;49.394;8.434;2023-08-24T15:29:14;28.00;86.20
19817;DHT22;68323;49.394;8.434;2023-08-24T15:31:46;28.10;86.10
19817;DHT22;68323;49.394;8.434;2023-08-24T15:34:11;28.30;86.10
19817;DHT22;68323;49.394;8.434;2023-08-24T15:36:37;28.40;85.50
19817;DHT22;68323;49.394;8.434;2023-08-24T15:39:03;28.60;85.70
19817;DHT22;68323;49.394;8.434;2023-08-24T15:41:30;28.70;86.10
19817;DHT22;68323;49.394;8.434;2023-08-24T15:43:55;28.80;86.00
19817;DHT22;68323;49.394;8.434;2023-08-24T15:46:21;29.00;85.60